Indianapolis, Indiana
Traffic Map
Current Weather Conditions
Indianapolis, Indiana
Scattered Clouds
Scattered Clouds

Feels Like: 7°
Wind Chill: Ceiling: Unl
Heat Index: Visibility: 10mi
Dew Point: Wind: 6mph
Humidity: 77% Direction: 310° (NW)
Pressure: 30.14in Gusts: 0mph
Raw Report DataKIND 212354Z 31005KT 10SM SCT060 09/05 A3014 RMK AO2 SLP208 T00890050 10139 20089 53014
Traffic Incident Summary
Active as of:
Severity:
Category:
InformationThere was an issue retrieving the traffic information for this location. Please try a different location or try again shortly.
Advertisements
Track Severe Weather on mobile